Terminal Aerodrome Forecast
Issued by NWS Wilmington, OH

Current Version | Previous Version | Text Only | Print | Product List | Glossary Off
Versions: 1 2 3 4 5 6 7 8 9 10 11 12 13 14 15 16 17 18 19 20 21

000
FTUS41 KILN 260500
TAFCMH
TAF
KCMH 260538Z 2606/2706 36005KT P6SM FEW200
     FM260900 04004KT P6SM BKN200
     FM261400 04003KT P6SM BKN040
     FM270000 VRB03KT P6SM BKN200=

USA.gov is the U.S. government's official web portal to all federal, state and local government web resources and services.